Fairland, Oklahoma
Current Conditions -  °F | °C
As of 4:15 PM on Monday 20 Oct 2014 (Local Time) from KGMJ Reporting Station
Scattered Clouds Scattered Clouds  
Wind Chill: 73°   Ceiling: Unl
Heat Index: 73°   Visibility: 10mi
Dew Point: 59°   Wind: 3mph
Humidity: 61%   Direction: 150°SSE
Pressure: 30.04"   Gusts: NA
Location:  36.75°N, 94.85°W
Report Text: KGMJ 202115Z AUTO 15003KT 10SM SCT029 23/15 A3004 RMK AO2
Loading
Personal Weather Stations






























Interactive Weather Map
Tropical Storm Tracking
New forecast layout! Learn more

10-Day Weather Forecast

Advertisements
Track Severe Weather on mobile